sensor_id;sensor_type;location;lat;lon;timestamp;P1;durP1;ratioP1;P2;durP2;ratioP2
65045;SDS011;54657;52.022;5.534;2023-04-01T00:00:29;3.28;;;2.90;;
65045;SDS011;54657;52.022;5.534;2023-04-01T00:02:54;3.90;;;3.45;;
65045;SDS011;54657;52.022;5.534;2023-04-01T00:05:20;6.07;;;3.20;;
65045;SDS011;54657;52.022;5.534;2023-04-01T00:07:46;3.97;;;3.50;;
65045;SDS011;54657;52.022;5.534;2023-04-01T00:10:12;4.35;;;3.35;;
65045;SDS011;54657;52.022;5.534;2023-04-01T00:12:39;5.60;;;3.67;;
65045;SDS011;54657;52.022;5.534;2023-04-01T00:15:06;5.20;;;3.90;;
65045;SDS011;54657;52.022;5.534;2023-04-01T00:17:34;4.38;;;3.75;;
65045;SDS011;54657;52.022;5.534;2023-04-01T00:19:59;6.38;;;4.28;;
65045;SDS011;54657;52.022;5.534;2023-04-01T00:22:26;4.43;;;4.03;;
65045;SDS011;54657;52.022;5.534;2023-04-01T00:24:52;4.80;;;4.35;;
65045;SDS011;54657;52.022;5.534;2023-04-01T00:27:18;5.30;;;4.50;;
65045;SDS011;54657;52.022;5.534;2023-04-01T00:29:44;6.38;;;4.60;;
65045;SDS011;54657;52.022;5.534;2023-04-01T00:32:11;9.98;;;4.70;;
65045;SDS011;54657;52.022;5.534;2023-04-01T00:34:37;8.95;;;4.90;;
65045;SDS011;54657;52.022;5.534;2023-04-01T00:37:04;7.55;;;4.80;;
65045;SDS011;54657;52.022;5.534;2023-04-01T00:39:31;8.45;;;4.75;;
65045;SDS011;54657;52.022;5.534;2023-04-01T00:41:58;8.60;;;5.30;;
65045;SDS011;54657;52.022;5.534;2023-04-01T00:44:25;9.68;;;5.78;;
65045;SDS011;54657;52.022;5.534;2023-04-01T00:46:52;10.57;;;5.18;;
65045;SDS011;54657;52.022;5.534;2023-04-01T00:49:19;7.28;;;4.75;;
65045;SDS011;54657;52.022;5.534;2023-04-01T00:51:49;11.77;;;5.35;;
65045;SDS011;54657;52.022;5.534;2023-04-01T00:54:18;16.50;;;5.70;;
65045;SDS011;54657;52.022;5.534;2023-04-01T00:56:50;15.52;;;5.75;;
65045;SDS011;54657;52.022;5.534;2023-04-01T00:59:39;15.23;;;5.70;;
65045;SDS011;54657;52.022;5.534;2023-04-01T01:02:09;12.32;;;5.63;;
65045;SDS011;54657;52.022;5.534;2023-04-01T01:04:36;11.90;;;6.03;;
65045;SDS011;54657;52.022;5.534;2023-04-01T01:10:04;13.52;;;5.40;;
65045;SDS011;54657;52.022;5.534;2023-04-01T01:12:46;11.63;;;5.32;;
65045;SDS011;54657;52.022;5.534;2023-04-01T01:18:11;11.88;;;5.03;;
65045;SDS011;54657;52.022;5.534;2023-04-01T01:31:44;13.50;;;5.82;;
65045;SDS011;54657;52.022;5.534;2023-04-01T01:34:48;12.20;;;5.82;;
65045;SDS011;54657;52.022;5.534;2023-04-01T01:37:31;15.60;;;5.85;;
65045;SDS011;54657;52.022;5.534;2023-04-01T01:40:02;13.35;;;5.93;;
65045;SDS011;54657;52.022;5.534;2023-04-01T01:42:31;15.85;;;7.13;;
65045;SDS011;54657;52.022;5.534;2023-04-01T01:45:01;15.25;;;7.00;;
65045;SDS011;54657;52.022;5.534;2023-04-01T01:47:28;15.45;;;7.50;;
65045;SDS011;54657;52.022;5.534;2023-04-01T01:49:55;17.20;;;7.13;;
65045;SDS011;54657;52.022;5.534;2023-04-01T01:52:22;17.08;;;6.93;;
65045;SDS011;54657;52.022;5.534;2023-04-01T01:54:49;19.35;;;7.53;;
65045;SDS011;54657;52.022;5.534;2023-04-01T01:57:21;18.55;;;8.05;;
65045;SDS011;54657;52.022;5.534;2023-04-01T01:59:51;16.02;;;6.60;;
65045;SDS011;54657;52.022;5.534;2023-04-01T02:02:25;15.98;;;6.97;;
65045;SDS011;54657;52.022;5.534;2023-04-01T02:04:52;14.73;;;6.78;;
65045;SDS011;54657;52.022;5.534;2023-04-01T02:07:23;14.73;;;6.95;;
65045;SDS011;54657;52.022;5.534;2023-04-01T02:09:55;17.45;;;6.57;;
65045;SDS011;54657;52.022;5.534;2023-04-01T02:12:21;16.23;;;6.82;;
65045;SDS011;54657;52.022;5.534;2023-04-01T02:14:50;16.23;;;6.80;;
65045;SDS011;54657;52.022;5.534;2023-04-01T02:17:34;13.25;;;6.15;;
65045;SDS011;54657;52.022;5.534;2023-04-01T02:20:23;12.70;;;6.15;;
65045;SDS011;54657;52.022;5.534;2023-04-01T02:22:50;12.32;;;5.72;;
65045;SDS011;54657;52.022;5.534;2023-04-01T02:25:22;9.68;;;4.70;;
65045;SDS011;54657;52.022;5.534;2023-04-01T02:27:50;11.68;;;5.25;;
65045;SDS011;54657;52.022;5.534;2023-04-01T02:30:17;9.27;;;4.80;;
65045;SDS011;54657;52.022;5.534;2023-04-01T02:32:44;11.88;;;4.60;;
65045;SDS011;54657;52.022;5.534;2023-04-01T02:35:11;12.23;;;4.68;;
65045;SDS011;54657;52.022;5.534;2023-04-01T02:37:40;7.18;;;4.20;;
65045;SDS011;54657;52.022;5.534;2023-04-01T02:40:11;6.43;;;3.80;;
65045;SDS011;54657;52.022;5.534;2023-04-01T02:42:39;8.02;;;3.55;;
65045;SDS011;54657;52.022;5.534;2023-04-01T02:45:05;8.00;;;4.38;;
65045;SDS011;54657;52.022;5.534;2023-04-01T02:47:31;7.40;;;4.07;;
65045;SDS011;54657;52.022;5.534;2023-04-01T02:49:57;8.52;;;4.32;;
65045;SDS011;54657;52.022;5.534;2023-04-01T02:52:27;7.32;;;4.32;;
65045;SDS011;54657;52.022;5.534;2023-04-01T02:54:54;8.73;;;3.85;;
65045;SDS011;54657;52.022;5.534;2023-04-01T02:57:20;6.72;;;4.32;;
65045;SDS011;54657;52.022;5.534;2023-04-01T02:59:46;8.30;;;4.22;;
65045;SDS011;54657;52.022;5.534;2023-04-01T03:02:11;4.90;;;3.85;;
65045;SDS011;54657;52.022;5.534;2023-04-01T03:04:37;5.93;;;4.07;;
65045;SDS011;54657;52.022;5.534;2023-04-01T03:07:03;6.13;;;3.92;;
65045;SDS011;54657;52.022;5.534;2023-04-01T03:09:28;8.40;;;4.07;;
65045;SDS011;54657;52.022;5.534;2023-04-01T03:11:55;6.10;;;4.10;;
65045;SDS011;54657;52.022;5.534;2023-04-01T03:14:20;8.02;;;3.90;;
65045;SDS011;54657;52.022;5.534;2023-04-01T03:16:46;7.82;;;4.35;;
65045;SDS011;54657;52.022;5.534;2023-04-01T03:19:12;6.22;;;3.92;;
65045;SDS011;54657;52.022;5.534;2023-04-01T03:21:37;5.80;;;3.47;;
65045;SDS011;54657;52.022;5.534;2023-04-01T03:24:03;6.10;;;4.10;;
65045;SDS011;54657;52.022;5.534;2023-04-01T03:26:29;6.45;;;3.85;;
65045;SDS011;54657;52.022;5.534;2023-04-01T03:28:55;6.97;;;3.83;;
65045;SDS011;54657;52.022;5.534;2023-04-01T03:31:21;4.85;;;3.88;;
65045;SDS011;54657;52.022;5.534;2023-04-01T03:33:47;6.10;;;4.15;;
65045;SDS011;54657;52.022;5.534;2023-04-01T03:36:12;6.10;;;3.60;;
65045;SDS011;54657;52.022;5.534;2023-04-01T03:38:41;4.47;;;3.33;;
65045;SDS011;54657;52.022;5.534;2023-04-01T03:41:11;4.63;;;3.33;;
65045;SDS011;54657;52.022;5.534;2023-04-01T03:43:38;6.57;;;3.55;;
65045;SDS011;54657;52.022;5.534;2023-04-01T03:46:03;4.35;;;3.42;;
65045;SDS011;54657;52.022;5.534;2023-04-01T03:48:29;6.43;;;3.92;;
65045;SDS011;54657;52.022;5.534;2023-04-01T03:50:55;5.68;;;3.90;;
65045;SDS011;54657;52.022;5.534;2023-04-01T03:53:21;6.07;;;4.13;;
65045;SDS011;54657;52.022;5.534;2023-04-01T03:55:46;5.93;;;3.85;;
65045;SDS011;54657;52.022;5.534;2023-04-01T03:58:12;4.57;;;3.83;;
65045;SDS011;54657;52.022;5.534;2023-04-01T04:00:37;7.25;;;3.78;;
65045;SDS011;54657;52.022;5.534;2023-04-01T04:03:03;4.78;;;3.85;;
65045;SDS011;54657;52.022;5.534;2023-04-01T04:05:30;4.82;;;3.38;;
65045;SDS011;54657;52.022;5.534;2023-04-01T04:07:56;4.18;;;3.67;;
65045;SDS011;54657;52.022;5.534;2023-04-01T04:10:21;4.55;;;3.38;;
65045;SDS011;54657;52.022;5.534;2023-04-01T04:12:48;4.10;;;3.67;;
65045;SDS011;54657;52.022;5.534;2023-04-01T04:15:14;4.10;;;3.47;;
65045;SDS011;54657;52.022;5.534;2023-04-01T04:17:40;4.20;;;3.70;;
65045;SDS011;54657;52.022;5.534;2023-04-01T04:20:06;3.67;;;3.38;;
65045;SDS011;54657;52.022;5.534;2023-04-01T04:22:33;4.07;;;3.42;;
65045;SDS011;54657;52.022;5.534;2023-04-01T04:24:58;4.68;;;3.70;;
65045;SDS011;54657;52.022;5.534;2023-04-01T04:27:24;3.72;;;3.42;;
65045;SDS011;54657;52.022;5.534;2023-04-01T04:29:50;4.38;;;3.55;;
65045;SDS011;54657;52.022;5.534;2023-04-01T04:32:15;4.65;;;3.60;;
65045;SDS011;54657;52.022;5.534;2023-04-01T04:34:41;4.35;;;3.90;;
65045;SDS011;54657;52.022;5.534;2023-04-01T04:37:06;3.42;;;3.13;;
65045;SDS011;54657;52.022;5.534;2023-04-01T04:39:32;4.60;;;3.58;;
65045;SDS011;54657;52.022;5.534;2023-04-01T04:41:57;3.58;;;3.28;;
65045;SDS011;54657;52.022;5.534;2023-04-01T04:44:23;3.67;;;3.00;;
65045;SDS011;54657;52.022;5.534;2023-04-01T04:46:49;5.43;;;3.17;;
65045;SDS011;54657;52.022;5.534;2023-04-01T04:49:14;3.03;;;2.72;;
65045;SDS011;54657;52.022;5.534;2023-04-01T04:51:40;3.50;;;3.20;;
65045;SDS011;54657;52.022;5.534;2023-04-01T04:54:06;3.10;;;2.80;;
65045;SDS011;54657;52.022;5.534;2023-04-01T04:56:32;4.93;;;3.13;;
65045;SDS011;54657;52.022;5.534;2023-04-01T04:58:58;3.30;;;3.00;;
65045;SDS011;54657;52.022;5.534;2023-04-01T05:01:24;2.97;;;2.67;;
65045;SDS011;54657;52.022;5.534;2023-04-01T05:03:49;4.13;;;3.42;;
65045;SDS011;54657;52.022;5.534;2023-04-01T05:06:16;4.20;;;2.97;;
65045;SDS011;54657;52.022;5.534;2023-04-01T05:08:43;6.30;;;3.67;;
65045;SDS011;54657;52.022;5.534;2023-04-01T05:11:13;4.40;;;3.75;;
65045;SDS011;54657;52.022;5.534;2023-04-01T05:13:41;4.35;;;3.40;;
65045;SDS011;54657;52.022;5.534;2023-04-01T05:16:11;4.95;;;3.80;;
65045;SDS011;54657;52.022;5.534;2023-04-01T05:18:38;5.05;;;3.67;;
65045;SDS011;54657;52.022;5.534;2023-04-01T05:21:04;4.57;;;3.63;;
65045;SDS011;54657;52.022;5.534;2023-04-01T05:23:32;3.85;;;3.20;;
65045;SDS011;54657;52.022;5.534;2023-04-01T05:25:58;4.82;;;3.47;;
65045;SDS011;54657;52.022;5.534;2023-04-01T05:28:27;3.58;;;3.25;;
65045;SDS011;54657;52.022;5.534;2023-04-01T05:30:53;4.82;;;2.60;;
65045;SDS011;54657;52.022;5.534;2023-04-01T05:33:18;3.15;;;2.80;;
65045;SDS011;54657;52.022;5.534;2023-04-01T05:35:44;3.33;;;2.28;;
65045;SDS011;54657;52.022;5.534;2023-04-01T05:38:09;3.60;;;2.58;;
65045;SDS011;54657;52.022;5.534;2023-04-01T05:40:35;3.35;;;2.60;;
65045;SDS011;54657;52.022;5.534;2023-04-01T05:43:01;3.00;;;2.17;;
65045;SDS011;54657;52.022;5.534;2023-04-01T05:45:27;3.38;;;2.22;;
65045;SDS011;54657;52.022;5.534;2023-04-01T05:47:53;2.60;;;2.40;;
65045;SDS011;54657;52.022;5.534;2023-04-01T05:50:18;3.33;;;2.53;;
65045;SDS011;54657;52.022;5.534;2023-04-01T05:52:45;2.88;;;2.47;;
65045;SDS011;54657;52.022;5.534;2023-04-01T05:55:11;3.35;;;2.40;;
65045;SDS011;54657;52.022;5.534;2023-04-01T05:57:36;3.97;;;3.13;;
65045;SDS011;54657;52.022;5.534;2023-04-01T06:00:02;3.83;;;3.05;;
65045;SDS011;54657;52.022;5.534;2023-04-01T06:02:29;4.43;;;2.67;;
65045;SDS011;54657;52.022;5.534;2023-04-01T06:05:03;3.72;;;2.95;;
65045;SDS011;54657;52.022;5.534;2023-04-01T06:10:08;3.67;;;2.55;;
65045;SDS011;54657;52.022;5.534;2023-04-01T06:12:53;3.08;;;2.78;;
65045;SDS011;54657;52.022;5.534;2023-04-01T06:42:35;2.88;;;2.35;;
65045;SDS011;54657;52.022;5.534;2023-04-01T06:47:59;2.92;;;2.22;;
65045;SDS011;54657;52.022;5.534;2023-04-01T06:56:18;2.47;;;2.25;;
65045;SDS011;54657;52.022;5.534;2023-04-01T06:58:48;2.35;;;1.98;;
65045;SDS011;54657;52.022;5.534;2023-04-01T07:01:22;2.45;;;2.22;;
65045;SDS011;54657;52.022;5.534;2023-04-01T07:04:02;1.77;;;1.67;;
65045;SDS011;54657;52.022;5.534;2023-04-01T07:09:08;6.50;;;4.65;;
65045;SDS011;54657;52.022;5.534;2023-04-01T07:11:37;2.65;;;1.80;;
65045;SDS011;54657;52.022;5.534;2023-04-01T07:19:39;2.45;;;1.83;;
65045;SDS011;54657;52.022;5.534;2023-04-01T07:22:17;1.75;;;1.60;;
65045;SDS011;54657;52.022;5.534;2023-04-01T07:24:46;1.90;;;1.80;;
65045;SDS011;54657;52.022;5.534;2023-04-01T07:27:13;1.50;;;1.40;;
65045;SDS011;54657;52.022;5.534;2023-04-01T07:29:39;1.77;;;1.40;;
65045;SDS011;54657;52.022;5.534;2023-04-01T07:32:17;1.38;;;1.27;;
65045;SDS011;54657;52.022;5.534;2023-04-01T07:45:41;2.75;;;2.00;;
65045;SDS011;54657;52.022;5.534;2023-04-01T07:48:32;2.72;;;2.45;;
65045;SDS011;54657;52.022;5.534;2023-04-01T07:51:11;2.97;;;2.00;;
65045;SDS011;54657;52.022;5.534;2023-04-01T07:53:58;3.10;;;2.45;;
65045;SDS011;54657;52.022;5.534;2023-04-01T08:05:25;2.88;;;2.38;;
65045;SDS011;54657;52.022;5.534;2023-04-01T08:08:08;2.83;;;2.53;;
65045;SDS011;54657;52.022;5.534;2023-04-01T08:10:59;2.30;;;2.10;;
65045;SDS011;54657;52.022;5.534;2023-04-01T08:13:48;2.25;;;2.05;;
65045;SDS011;54657;52.022;5.534;2023-04-01T08:19:40;2.35;;;1.88;;
65045;SDS011;54657;52.022;5.534;2023-04-01T08:25:37;3.65;;;2.25;;
65045;SDS011;54657;52.022;5.534;2023-04-01T08:31:00;2.85;;;2.30;;
65045;SDS011;54657;52.022;5.534;2023-04-01T08:33:34;2.50;;;2.30;;
65045;SDS011;54657;52.022;5.534;2023-04-01T08:36:08;2.85;;;2.55;;
65045;SDS011;54657;52.022;5.534;2023-04-01T08:38:40;2.70;;;2.25;;
65045;SDS011;54657;52.022;5.534;2023-04-01T08:44:04;3.75;;;2.53;;
65045;SDS011;54657;52.022;5.534;2023-04-01T08:46:58;5.22;;;2.50;;
65045;SDS011;54657;52.022;5.534;2023-04-01T08:52:35;2.80;;;2.38;;
65045;SDS011;54657;52.022;5.534;2023-04-01T08:57:56;3.80;;;2.38;;
65045;SDS011;54657;52.022;5.534;2023-04-01T09:06:21;3.30;;;2.83;;
65045;SDS011;54657;52.022;5.534;2023-04-01T09:09:04;3.50;;;2.90;;
65045;SDS011;54657;52.022;5.534;2023-04-01T09:14:53;4.85;;;2.88;;
65045;SDS011;54657;52.022;5.534;2023-04-01T09:20:24;3.88;;;3.30;;
65045;SDS011;54657;52.022;5.534;2023-04-01T09:28:59;5.57;;;3.80;;
65045;SDS011;54657;52.022;5.534;2023-04-01T09:42:42;6.25;;;4.13;;
65045;SDS011;54657;52.022;5.534;2023-04-01T09:47:57;7.93;;;4.70;;
65045;SDS011;54657;52.022;5.534;2023-04-01T09:50:46;4.00;;;3.47;;
65045;SDS011;54657;52.022;5.534;2023-04-01T09:53:24;5.47;;;3.67;;
65045;SDS011;54657;52.022;5.534;2023-04-01T10:01:25;4.10;;;2.90;;
65045;SDS011;54657;52.022;5.534;2023-04-01T10:06:54;3.15;;;2.85;;
65045;SDS011;54657;52.022;5.534;2023-04-01T10:29:31;5.15;;;4.07;;
65045;SDS011;54657;52.022;5.534;2023-04-01T10:35:14;4.43;;;3.92;;
65045;SDS011;54657;52.022;5.534;2023-04-01T10:38:10;5.60;;;4.15;;
65045;SDS011;54657;52.022;5.534;2023-04-01T11:05:35;4.75;;;4.20;;
65045;SDS011;54657;52.022;5.534;2023-04-01T11:41:35;5.00;;;2.55;;
65045;SDS011;54657;52.022;5.534;2023-04-01T11:44:22;2.67;;;2.10;;
65045;SDS011;54657;52.022;5.534;2023-04-01T11:49:42;3.25;;;1.70;;
65045;SDS011;54657;52.022;5.534;2023-04-01T12:00:58;3.00;;;1.00;;
65045;SDS011;54657;52.022;5.534;2023-04-01T12:12:00;1.50;;;1.40;;
65045;SDS011;54657;52.022;5.534;2023-04-01T12:14:30;1.73;;;1.27;;
65045;SDS011;54657;52.022;5.534;2023-04-01T12:17:11;1.38;;;1.27;;
65045;SDS011;54657;52.022;5.534;2023-04-01T12:19:51;1.40;;;1.30;;
65045;SDS011;54657;52.022;5.534;2023-04-01T12:25:07;1.35;;;1.10;;
65045;SDS011;54657;52.022;5.534;2023-04-01T12:27:49;1.30;;;1.20;;
65045;SDS011;54657;52.022;5.534;2023-04-01T12:30:42;1.55;;;1.10;;
65045;SDS011;54657;52.022;5.534;2023-04-01T12:36:00;1.40;;;1.30;;
65045;SDS011;54657;52.022;5.534;2023-04-01T13:03:22;4.45;;;3.28;;
65045;SDS011;54657;52.022;5.534;2023-04-01T13:06:21;4.13;;;3.70;;
65045;SDS011;54657;52.022;5.534;2023-04-01T13:23:01;4.20;;;3.80;;
65045;SDS011;54657;52.022;5.534;2023-04-01T13:28:25;6.95;;;5.05;;
65045;SDS011;54657;52.022;5.534;2023-04-01T13:31:10;5.85;;;4.68;;
65045;SDS011;54657;52.022;5.534;2023-04-01T13:34:16;7.88;;;5.13;;
65045;SDS011;54657;52.022;5.534;2023-04-01T13:42:31;7.47;;;5.57;;
65045;SDS011;54657;52.022;5.534;2023-04-01T13:45:12;6.60;;;5.50;;
65045;SDS011;54657;52.022;5.534;2023-04-01T13:48:04;8.57;;;6.13;;
65045;SDS011;54657;52.022;5.534;2023-04-01T14:06:26;4.22;;;2.63;;
65045;SDS011;54657;52.022;5.534;2023-04-01T14:09:15;2.65;;;2.45;;
65045;SDS011;54657;52.022;5.534;2023-04-01T14:15:00;3.00;;;2.33;;
65045;SDS011;54657;52.022;5.534;2023-04-01T14:21:14;4.20;;;2.67;;
65045;SDS011;54657;52.022;5.534;2023-04-01T14:32:29;2.70;;;2.50;;
65045;SDS011;54657;52.022;5.534;2023-04-01T14:40:28;3.53;;;2.63;;
65045;SDS011;54657;52.022;5.534;2023-04-01T14:48:38;4.15;;;2.92;;
65045;SDS011;54657;52.022;5.534;2023-04-01T14:54:14;2.72;;;2.20;;
65045;SDS011;54657;52.022;5.534;2023-04-01T14:56:50;2.97;;;2.72;;
65045;SDS011;54657;52.022;5.534;2023-04-01T14:59:41;2.58;;;2.30;;
65045;SDS011;54657;52.022;5.534;2023-04-01T15:02:28;2.95;;;2.72;;
65045;SDS011;54657;52.022;5.534;2023-04-01T15:04:58;3.63;;;2.60;;
65045;SDS011;54657;52.022;5.534;2023-04-01T15:10:44;3.25;;;2.95;;
65045;SDS011;54657;52.022;5.534;2023-04-01T15:32:54;3.00;;;2.80;;
65045;SDS011;54657;52.022;5.534;2023-04-01T15:35:52;3.20;;;2.90;;
65045;SDS011;54657;52.022;5.534;2023-04-01T15:38:44;3.27;;;2.93;;
65045;SDS011;54657;52.022;5.534;2023-04-01T15:41:15;3.78;;;3.38;;
65045;SDS011;54657;52.022;5.534;2023-04-01T15:43:48;3.33;;;2.88;;
65045;SDS011;54657;52.022;5.534;2023-04-01T15:51:47;4.25;;;2.80;;
65045;SDS011;54657;52.022;5.534;2023-04-01T16:00:06;4.22;;;2.13;;
65045;SDS011;54657;52.022;5.534;2023-04-01T16:02:45;2.70;;;2.50;;
65045;SDS011;54657;52.022;5.534;2023-04-01T16:11:17;2.78;;;2.58;;
65045;SDS011;54657;52.022;5.534;2023-04-01T16:33:22;2.05;;;1.88;;
65045;SDS011;54657;52.022;5.534;2023-04-01T16:41:17;2.47;;;2.20;;
65045;SDS011;54657;52.022;5.534;2023-04-01T16:54:18;2.42;;;2.22;;
65045;SDS011;54657;52.022;5.534;2023-04-01T16:57:03;2.50;;;2.30;;
65045;SDS011;54657;52.022;5.534;2023-04-01T16:59:37;3.17;;;2.45;;
65045;SDS011;54657;52.022;5.534;2023-04-01T17:02:12;2.60;;;2.17;;
65045;SDS011;54657;52.022;5.534;2023-04-01T17:04:57;2.35;;;2.15;;
65045;SDS011;54657;52.022;5.534;2023-04-01T17:16:24;4.72;;;2.40;;
65045;SDS011;54657;52.022;5.534;2023-04-01T17:19:05;2.85;;;2.65;;
65045;SDS011;54657;52.022;5.534;2023-04-01T17:32:56;3.45;;;3.20;;
65045;SDS011;54657;52.022;5.534;2023-04-01T17:35:35;3.78;;;3.08;;
65045;SDS011;54657;52.022;5.534;2023-04-01T17:51:17;4.47;;;2.85;;
65045;SDS011;54657;52.022;5.534;2023-04-01T17:53:27;3.90;;;3.38;;
65045;SDS011;54657;52.022;5.534;2023-04-01T17:58:43;5.40;;;3.40;;
65045;SDS011;54657;52.022;5.534;2023-04-01T18:09:31;3.92;;;3.30;;
65045;SDS011;54657;52.022;5.534;2023-04-01T18:12:25;3.88;;;3.03;;
65045;SDS011;54657;52.022;5.534;2023-04-01T18:17:40;3.70;;;3.40;;
65045;SDS011;54657;52.022;5.534;2023-04-01T18:20:42;4.18;;;3.78;;
65045;SDS011;54657;52.022;5.534;2023-04-01T18:26:04;4.50;;;3.78;;
65045;SDS011;54657;52.022;5.534;2023-04-01T18:31:15;3.28;;;3.00;;
65045;SDS011;54657;52.022;5.534;2023-04-01T18:41:32;3.78;;;3.22;;
65045;SDS011;54657;52.022;5.534;2023-04-01T18:46:55;3.47;;;2.95;;
65045;SDS011;54657;52.022;5.534;2023-04-01T18:49:33;5.95;;;3.15;;
65045;SDS011;54657;52.022;5.534;2023-04-01T18:52:27;3.55;;;3.25;;
65045;SDS011;54657;52.022;5.534;2023-04-01T19:27:41;3.47;;;3.17;;
65045;SDS011;54657;52.022;5.534;2023-04-01T19:30:33;4.63;;;4.10;;
65045;SDS011;54657;52.022;5.534;2023-04-01T19:36:53;3.60;;;3.30;;
65045;SDS011;54657;52.022;5.534;2023-04-01T19:52:55;4.53;;;4.13;;
65045;SDS011;54657;52.022;5.534;2023-04-01T19:58:03;2.65;;;2.45;;
65045;SDS011;54657;52.022;5.534;2023-04-01T20:04:05;2.78;;;2.58;;
65045;SDS011;54657;52.022;5.534;2023-04-01T20:06:45;3.17;;;2.83;;
65045;SDS011;54657;52.022;5.534;2023-04-01T20:12:08;3.28;;;3.00;;
65045;SDS011;54657;52.022;5.534;2023-04-01T20:14:54;2.95;;;2.75;;
65045;SDS011;54657;52.022;5.534;2023-04-01T20:25:13;3.83;;;3.55;;
65045;SDS011;54657;52.022;5.534;2023-04-01T20:28:09;3.78;;;3.47;;
65045;SDS011;54657;52.022;5.534;2023-04-01T20:30:59;4.30;;;3.90;;
65045;SDS011;54657;52.022;5.534;2023-04-01T20:39:48;5.03;;;4.53;;
65045;SDS011;54657;52.022;5.534;2023-04-01T20:42:24;5.63;;;5.13;;
65045;SDS011;54657;52.022;5.534;2023-04-01T20:53:36;5.78;;;5.28;;
65045;SDS011;54657;52.022;5.534;2023-04-01T21:07:40;6.38;;;5.65;;
65045;SDS011;54657;52.022;5.534;2023-04-01T21:21:07;6.20;;;5.60;;
65045;SDS011;54657;52.022;5.534;2023-04-01T21:45:18;4.15;;;3.85;;
65045;SDS011;54657;52.022;5.534;2023-04-01T21:48:20;5.10;;;4.03;;
65045;SDS011;54657;52.022;5.534;2023-04-01T22:04:59;5.38;;;4.90;;
65045;SDS011;54657;52.022;5.534;2023-04-01T22:07:45;5.28;;;4.78;;
65045;SDS011;54657;52.022;5.534;2023-04-01T22:12:50;5.07;;;4.60;;
65045;SDS011;54657;52.022;5.534;2023-04-01T22:21:12;7.78;;;5.45;;
65045;SDS011;54657;52.022;5.534;2023-04-01T22:24:08;5.88;;;5.28;;
65045;SDS011;54657;52.022;5.534;2023-04-01T22:29:50;5.55;;;5.05;;
65045;SDS011;54657;52.022;5.534;2023-04-01T22:32:24;5.93;;;5.10;;
65045;SDS011;54657;52.022;5.534;2023-04-01T22:35:40;6.60;;;6.00;;
65045;SDS011;54657;52.022;5.534;2023-04-01T22:38:00;5.32;;;4.82;;
65045;SDS011;54657;52.022;5.534;2023-04-01T22:40:39;6.40;;;5.80;;
65045;SDS011;54657;52.022;5.534;2023-04-01T22:43:11;5.70;;;5.20;;
65045;SDS011;54657;52.022;5.534;2023-04-01T22:53:37;5.45;;;4.95;;
65045;SDS011;54657;52.022;5.534;2023-04-01T22:56:32;5.47;;;4.97;;
65045;SDS011;54657;52.022;5.534;2023-04-01T23:02:01;5.68;;;5.07;;
65045;SDS011;54657;52.022;5.534;2023-04-01T23:04:37;6.32;;;5.35;;
65045;SDS011;54657;52.022;5.534;2023-04-01T23:07:24;6.10;;;5.50;;
65045;SDS011;54657;52.022;5.534;2023-04-01T23:13:10;7.85;;;5.65;;
65045;SDS011;54657;52.022;5.534;2023-04-01T23:15:48;7.18;;;5.97;;
65045;SDS011;54657;52.022;5.534;2023-04-01T23:18:25;6.75;;;6.07;;
65045;SDS011;54657;52.022;5.534;2023-04-01T23:26:48;6.95;;;5.47;;
65045;SDS011;54657;52.022;5.534;2023-04-01T23:29:16;6.10;;;5.57;;
65045;SDS011;54657;52.022;5.534;2023-04-01T23:31:45;6.72;;;5.82;;
65045;SDS011;54657;52.022;5.534;2023-04-01T23:36:37;8.32;;;6.03;;
65045;SDS011;54657;52.022;5.534;2023-04-01T23:41:46;6.97;;;5.65;;
65045;SDS011;54657;52.022;5.534;2023-04-01T23:44:13;7.03;;;6.32;;
65045;SDS011;54657;52.022;5.534;2023-04-01T23:46:40;7.32;;;6.60;;
65045;SDS011;54657;52.022;5.534;2023-04-01T23:49:13;8.00;;;6.50;;
65045;SDS011;54657;52.022;5.534;2023-04-01T23:51:56;7.03;;;6.20;;
65045;SDS011;54657;52.022;5.534;2023-04-01T23:54:34;7.30;;;6.57;;
65045;SDS011;54657;52.022;5.534;2023-04-01T23:57:54;8.00;;;6.78;;
